sensor_id;sensor_type;location;lat;lon;timestamp;P1;durP1;ratioP1;P2;durP2;ratioP2
21601;SDS011;10963;50.934;4.668;2022-09-01T00:02:25;9.13;;;4.63;;
21601;SDS011;10963;50.934;4.668;2022-09-01T00:04:54;10.07;;;5.07;;
21601;SDS011;10963;50.934;4.668;2022-09-01T00:07:22;11.03;;;4.90;;
21601;SDS011;10963;50.934;4.668;2022-09-01T00:09:58;8.37;;;4.80;;
21601;SDS011;10963;50.934;4.668;2022-09-01T00:12:28;9.23;;;5.57;;
21601;SDS011;10963;50.934;4.668;2022-09-01T00:14:56;10.17;;;5.70;;
21601;SDS011;10963;50.934;4.668;2022-09-01T00:17:24;12.60;;;5.83;;
21601;SDS011;10963;50.934;4.668;2022-09-01T00:19:55;9.40;;;5.83;;
21601;SDS011;10963;50.934;4.668;2022-09-01T00:22:23;8.90;;;5.90;;
21601;SDS011;10963;50.934;4.668;2022-09-01T00:24:49;10.17;;;5.60;;
21601;SDS011;10963;50.934;4.668;2022-09-01T00:27:17;10.53;;;4.93;;
21601;SDS011;10963;50.934;4.668;2022-09-01T00:29:47;7.53;;;5.43;;
21601;SDS011;10963;50.934;4.668;2022-09-01T00:32:12;11.23;;;6.40;;
21601;SDS011;10963;50.934;4.668;2022-09-01T00:34:40;15.93;;;6.07;;
21601;SDS011;10963;50.934;4.668;2022-09-01T00:37:06;10.80;;;6.03;;
21601;SDS011;10963;50.934;4.668;2022-09-01T00:39:32;10.97;;;6.30;;
21601;SDS011;10963;50.934;4.668;2022-09-01T00:42:00;9.77;;;6.37;;
21601;SDS011;10963;50.934;4.668;2022-09-01T00:44:28;10.73;;;6.10;;
21601;SDS011;10963;50.934;4.668;2022-09-01T00:46:56;13.83;;;6.30;;
21601;SDS011;10963;50.934;4.668;2022-09-01T00:49:26;11.90;;;6.07;;
21601;SDS011;10963;50.934;4.668;2022-09-01T00:52:00;15.23;;;7.30;;
21601;SDS011;10963;50.934;4.668;2022-09-01T00:54:33;13.27;;;6.20;;
21601;SDS011;10963;50.934;4.668;2022-09-01T00:57:04;10.63;;;6.13;;
21601;SDS011;10963;50.934;4.668;2022-09-01T00:59:32;11.70;;;6.77;;
21601;SDS011;10963;50.934;4.668;2022-09-01T01:01:59;13.87;;;6.50;;
21601;SDS011;10963;50.934;4.668;2022-09-01T01:04:25;15.77;;;5.83;;
21601;SDS011;10963;50.934;4.668;2022-09-01T01:06:55;9.27;;;6.33;;
21601;SDS011;10963;50.934;4.668;2022-09-01T01:09:25;12.67;;;6.30;;
21601;SDS011;10963;50.934;4.668;2022-09-01T01:11:55;12.20;;;6.30;;
21601;SDS011;10963;50.934;4.668;2022-09-01T01:14:25;9.00;;;5.23;;
21601;SDS011;10963;50.934;4.668;2022-09-01T01:16:56;12.63;;;5.97;;
21601;SDS011;10963;50.934;4.668;2022-09-01T01:19:38;12.60;;;5.60;;
21601;SDS011;10963;50.934;4.668;2022-09-01T01:22:48;9.80;;;6.10;;
21601;SDS011;10963;50.934;4.668;2022-09-01T01:25:35;10.27;;;6.20;;
21601;SDS011;10963;50.934;4.668;2022-09-01T01:28:17;15.00;;;6.70;;
21601;SDS011;10963;50.934;4.668;2022-09-01T01:30:48;12.10;;;6.17;;
21601;SDS011;10963;50.934;4.668;2022-09-01T01:33:21;10.70;;;6.47;;
21601;SDS011;10963;50.934;4.668;2022-09-01T01:35:52;11.10;;;6.30;;
21601;SDS011;10963;50.934;4.668;2022-09-01T01:38:21;13.47;;;6.57;;
21601;SDS011;10963;50.934;4.668;2022-09-01T01:40:49;11.87;;;6.47;;
21601;SDS011;10963;50.934;4.668;2022-09-01T01:43:18;14.23;;;6.27;;
21601;SDS011;10963;50.934;4.668;2022-09-01T01:45:47;11.93;;;6.70;;
21601;SDS011;10963;50.934;4.668;2022-09-01T01:48:16;13.83;;;6.43;;
21601;SDS011;10963;50.934;4.668;2022-09-01T01:50:47;12.67;;;6.50;;
21601;SDS011;10963;50.934;4.668;2022-09-01T01:53:13;14.60;;;6.97;;
21601;SDS011;10963;50.934;4.668;2022-09-01T01:55:43;10.60;;;7.27;;
21601;SDS011;10963;50.934;4.668;2022-09-01T01:58:12;12.23;;;6.27;;
21601;SDS011;10963;50.934;4.668;2022-09-01T02:00:40;11.67;;;6.73;;
21601;SDS011;10963;50.934;4.668;2022-09-01T02:03:09;11.33;;;7.07;;
21601;SDS011;10963;50.934;4.668;2022-09-01T02:05:39;11.37;;;5.93;;
21601;SDS011;10963;50.934;4.668;2022-09-01T02:08:10;11.37;;;7.17;;
21601;SDS011;10963;50.934;4.668;2022-09-01T02:10:44;12.43;;;7.40;;
21601;SDS011;10963;50.934;4.668;2022-09-01T02:13:12;13.93;;;6.93;;
21601;SDS011;10963;50.934;4.668;2022-09-01T02:15:41;14.43;;;6.27;;
21601;SDS011;10963;50.934;4.668;2022-09-01T02:18:12;12.37;;;6.57;;
21601;SDS011;10963;50.934;4.668;2022-09-01T02:20:43;15.10;;;6.00;;
21601;SDS011;10963;50.934;4.668;2022-09-01T02:23:11;8.13;;;6.33;;
21601;SDS011;10963;50.934;4.668;2022-09-01T02:25:43;19.17;;;6.60;;
21601;SDS011;10963;50.934;4.668;2022-09-01T02:28:13;14.00;;;6.83;;
21601;SDS011;10963;50.934;4.668;2022-09-01T02:30:45;14.57;;;6.50;;
21601;SDS011;10963;50.934;4.668;2022-09-01T02:33:33;13.57;;;6.70;;
21601;SDS011;10963;50.934;4.668;2022-09-01T02:36:07;12.17;;;6.83;;
21601;SDS011;10963;50.934;4.668;2022-09-01T02:38:37;18.10;;;7.03;;
21601;SDS011;10963;50.934;4.668;2022-09-01T02:41:13;15.70;;;7.07;;
21601;SDS011;10963;50.934;4.668;2022-09-01T02:43:48;17.67;;;6.83;;
21601;SDS011;10963;50.934;4.668;2022-09-01T02:46:18;14.47;;;6.87;;
21601;SDS011;10963;50.934;4.668;2022-09-01T02:48:49;12.63;;;5.97;;
21601;SDS011;10963;50.934;4.668;2022-09-01T02:51:22;10.70;;;5.90;;
21601;SDS011;10963;50.934;4.668;2022-09-01T02:53:53;11.00;;;5.80;;
21601;SDS011;10963;50.934;4.668;2022-09-01T02:56:21;8.63;;;5.30;;
21601;SDS011;10963;50.934;4.668;2022-09-01T02:58:51;12.13;;;6.60;;
21601;SDS011;10963;50.934;4.668;2022-09-01T03:01:19;13.80;;;5.80;;
21601;SDS011;10963;50.934;4.668;2022-09-01T03:04:05;14.30;;;6.47;;
21601;SDS011;10963;50.934;4.668;2022-09-01T03:06:36;13.17;;;5.80;;
21601;SDS011;10963;50.934;4.668;2022-09-01T03:09:03;7.53;;;6.00;;
21601;SDS011;10963;50.934;4.668;2022-09-01T03:11:39;11.13;;;5.83;;
21601;SDS011;10963;50.934;4.668;2022-09-01T03:14:10;8.83;;;6.33;;
21601;SDS011;10963;50.934;4.668;2022-09-01T03:16:41;10.47;;;5.47;;
21601;SDS011;10963;50.934;4.668;2022-09-01T03:19:07;10.17;;;6.00;;
21601;SDS011;10963;50.934;4.668;2022-09-01T03:21:37;13.97;;;6.33;;
21601;SDS011;10963;50.934;4.668;2022-09-01T03:24:07;15.70;;;6.17;;
21601;SDS011;10963;50.934;4.668;2022-09-01T03:26:39;9.23;;;5.90;;
21601;SDS011;10963;50.934;4.668;2022-09-01T03:29:06;12.00;;;5.70;;
21601;SDS011;10963;50.934;4.668;2022-09-01T03:31:32;9.27;;;5.60;;
21601;SDS011;10963;50.934;4.668;2022-09-01T03:34:01;10.63;;;6.37;;
21601;SDS011;10963;50.934;4.668;2022-09-01T03:36:29;7.70;;;5.57;;
21601;SDS011;10963;50.934;4.668;2022-09-01T03:38:57;14.40;;;6.37;;
21601;SDS011;10963;50.934;4.668;2022-09-01T03:41:26;12.13;;;5.77;;
21601;SDS011;10963;50.934;4.668;2022-09-01T03:43:54;11.43;;;5.40;;
21601;SDS011;10963;50.934;4.668;2022-09-01T03:46:22;16.07;;;5.50;;
21601;SDS011;10963;50.934;4.668;2022-09-01T03:48:50;9.53;;;5.47;;
21601;SDS011;10963;50.934;4.668;2022-09-01T03:51:19;10.37;;;5.63;;
21601;SDS011;10963;50.934;4.668;2022-09-01T03:53:46;8.80;;;5.70;;
21601;SDS011;10963;50.934;4.668;2022-09-01T03:56:18;11.87;;;6.47;;
21601;SDS011;10963;50.934;4.668;2022-09-01T03:58:46;9.93;;;6.20;;
21601;SDS011;10963;50.934;4.668;2022-09-01T04:01:12;11.40;;;5.97;;
21601;SDS011;10963;50.934;4.668;2022-09-01T04:03:42;9.40;;;5.53;;
21601;SDS011;10963;50.934;4.668;2022-09-01T04:06:12;12.23;;;5.47;;
21601;SDS011;10963;50.934;4.668;2022-09-01T04:08:45;9.67;;;5.80;;
21601;SDS011;10963;50.934;4.668;2022-09-01T04:11:15;13.70;;;6.00;;
21601;SDS011;10963;50.934;4.668;2022-09-01T04:13:42;11.77;;;6.03;;
21601;SDS011;10963;50.934;4.668;2022-09-01T04:19:23;14.93;;;5.83;;
21601;SDS011;10963;50.934;4.668;2022-09-01T04:21:55;12.10;;;6.53;;
21601;SDS011;10963;50.934;4.668;2022-09-01T04:24:27;13.20;;;6.47;;
21601;SDS011;10963;50.934;4.668;2022-09-01T04:26:56;9.80;;;6.47;;
21601;SDS011;10963;50.934;4.668;2022-09-01T04:29:24;10.53;;;6.13;;
21601;SDS011;10963;50.934;4.668;2022-09-01T04:31:57;16.60;;;6.43;;
21601;SDS011;10963;50.934;4.668;2022-09-01T04:34:28;13.17;;;6.03;;
21601;SDS011;10963;50.934;4.668;2022-09-01T04:37:01;12.80;;;5.83;;
21601;SDS011;10963;50.934;4.668;2022-09-01T04:39:35;10.57;;;6.23;;
21601;SDS011;10963;50.934;4.668;2022-09-01T04:42:05;11.87;;;6.10;;
21601;SDS011;10963;50.934;4.668;2022-09-01T04:44:35;14.03;;;6.33;;
21601;SDS011;10963;50.934;4.668;2022-09-01T04:47:03;9.53;;;5.80;;
21601;SDS011;10963;50.934;4.668;2022-09-01T04:49:38;15.27;;;6.40;;
21601;SDS011;10963;50.934;4.668;2022-09-01T04:52:05;11.97;;;5.87;;
21601;SDS011;10963;50.934;4.668;2022-09-01T04:54:33;10.87;;;5.93;;
21601;SDS011;10963;50.934;4.668;2022-09-01T04:57:02;10.67;;;4.90;;
21601;SDS011;10963;50.934;4.668;2022-09-01T04:59:31;12.27;;;5.73;;
21601;SDS011;10963;50.934;4.668;2022-09-01T05:01:59;10.97;;;5.50;;
21601;SDS011;10963;50.934;4.668;2022-09-01T05:04:31;10.03;;;5.97;;
21601;SDS011;10963;50.934;4.668;2022-09-01T05:06:58;15.40;;;6.80;;
21601;SDS011;10963;50.934;4.668;2022-09-01T05:09:28;11.87;;;7.47;;
21601;SDS011;10963;50.934;4.668;2022-09-01T05:11:59;11.53;;;6.40;;
21601;SDS011;10963;50.934;4.668;2022-09-01T05:14:38;11.00;;;6.23;;
21601;SDS011;10963;50.934;4.668;2022-09-01T05:17:09;12.23;;;6.03;;
21601;SDS011;10963;50.934;4.668;2022-09-01T05:19:39;12.07;;;6.50;;
21601;SDS011;10963;50.934;4.668;2022-09-01T05:22:14;13.23;;;6.00;;
21601;SDS011;10963;50.934;4.668;2022-09-01T05:24:48;10.73;;;6.77;;
21601;SDS011;10963;50.934;4.668;2022-09-01T05:27:19;9.27;;;5.67;;
21601;SDS011;10963;50.934;4.668;2022-09-01T05:29:47;11.33;;;6.20;;
21601;SDS011;10963;50.934;4.668;2022-09-01T05:32:14;13.27;;;6.43;;
21601;SDS011;10963;50.934;4.668;2022-09-01T05:34:42;13.30;;;6.67;;
21601;SDS011;10963;50.934;4.668;2022-09-01T05:37:11;10.63;;;5.43;;
21601;SDS011;10963;50.934;4.668;2022-09-01T05:39:41;13.30;;;6.97;;
21601;SDS011;10963;50.934;4.668;2022-09-01T05:42:07;10.83;;;6.03;;
21601;SDS011;10963;50.934;4.668;2022-09-01T05:44:34;10.23;;;6.03;;
21601;SDS011;10963;50.934;4.668;2022-09-01T05:47:03;12.20;;;5.97;;
21601;SDS011;10963;50.934;4.668;2022-09-01T05:49:30;14.97;;;6.43;;
21601;SDS011;10963;50.934;4.668;2022-09-01T05:51:59;15.27;;;6.50;;
21601;SDS011;10963;50.934;4.668;2022-09-01T05:54:25;19.70;;;6.80;;
21601;SDS011;10963;50.934;4.668;2022-09-01T05:56:52;13.97;;;6.70;;
21601;SDS011;10963;50.934;4.668;2022-09-01T05:59:25;14.07;;;7.33;;
21601;SDS011;10963;50.934;4.668;2022-09-01T06:01:52;15.23;;;6.53;;
21601;SDS011;10963;50.934;4.668;2022-09-01T06:04:20;9.13;;;5.77;;
21601;SDS011;10963;50.934;4.668;2022-09-01T06:06:51;19.47;;;6.73;;
21601;SDS011;10963;50.934;4.668;2022-09-01T06:09:23;16.63;;;6.80;;
21601;SDS011;10963;50.934;4.668;2022-09-01T06:11:49;14.63;;;6.37;;
21601;SDS011;10963;50.934;4.668;2022-09-01T06:14:20;12.93;;;6.37;;
21601;SDS011;10963;50.934;4.668;2022-09-01T06:16:48;10.90;;;6.77;;
21601;SDS011;10963;50.934;4.668;2022-09-01T06:19:18;11.87;;;6.30;;
21601;SDS011;10963;50.934;4.668;2022-09-01T06:21:44;11.13;;;6.30;;
21601;SDS011;10963;50.934;4.668;2022-09-01T06:24:15;10.83;;;6.53;;
21601;SDS011;10963;50.934;4.668;2022-09-01T06:26:42;9.27;;;7.10;;
21601;SDS011;10963;50.934;4.668;2022-09-01T06:29:13;14.23;;;6.90;;
21601;SDS011;10963;50.934;4.668;2022-09-01T06:31:46;13.37;;;6.97;;
21601;SDS011;10963;50.934;4.668;2022-09-01T06:34:16;11.80;;;6.70;;
21601;SDS011;10963;50.934;4.668;2022-09-01T06:36:47;11.90;;;6.60;;
21601;SDS011;10963;50.934;4.668;2022-09-01T06:39:15;12.60;;;6.73;;
21601;SDS011;10963;50.934;4.668;2022-09-01T06:41:45;14.43;;;6.33;;
21601;SDS011;10963;50.934;4.668;2022-09-01T06:44:17;10.23;;;6.30;;
21601;SDS011;10963;50.934;4.668;2022-09-01T06:46:46;13.57;;;6.27;;
21601;SDS011;10963;50.934;4.668;2022-09-01T06:49:16;17.40;;;6.30;;
21601;SDS011;10963;50.934;4.668;2022-09-01T06:51:53;13.73;;;6.27;;
21601;SDS011;10963;50.934;4.668;2022-09-01T06:54:19;7.97;;;5.93;;
21601;SDS011;10963;50.934;4.668;2022-09-01T06:56:45;10.90;;;5.40;;
21601;SDS011;10963;50.934;4.668;2022-09-01T06:59:17;10.20;;;5.83;;
21601;SDS011;10963;50.934;4.668;2022-09-01T07:01:44;9.60;;;5.87;;
21601;SDS011;10963;50.934;4.668;2022-09-01T07:04:15;10.90;;;5.77;;
21601;SDS011;10963;50.934;4.668;2022-09-01T07:06:47;6.33;;;4.80;;
21601;SDS011;10963;50.934;4.668;2022-09-01T07:09:16;10.20;;;6.03;;
21601;SDS011;10963;50.934;4.668;2022-09-01T07:11:43;9.77;;;5.47;;
21601;SDS011;10963;50.934;4.668;2022-09-01T07:14:11;7.53;;;5.23;;
21601;SDS011;10963;50.934;4.668;2022-09-01T07:16:40;7.53;;;4.97;;
21601;SDS011;10963;50.934;4.668;2022-09-01T07:19:09;11.50;;;5.77;;
21601;SDS011;10963;50.934;4.668;2022-09-01T07:21:39;7.73;;;4.93;;
21601;SDS011;10963;50.934;4.668;2022-09-01T07:24:07;7.53;;;5.10;;
21601;SDS011;10963;50.934;4.668;2022-09-01T07:26:37;8.63;;;5.20;;
21601;SDS011;10963;50.934;4.668;2022-09-01T07:29:09;8.80;;;5.50;;
21601;SDS011;10963;50.934;4.668;2022-09-01T07:31:36;10.80;;;6.17;;
21601;SDS011;10963;50.934;4.668;2022-09-01T07:34:05;9.77;;;5.00;;
21601;SDS011;10963;50.934;4.668;2022-09-01T07:36:34;7.00;;;5.10;;
21601;SDS011;10963;50.934;4.668;2022-09-01T07:39:02;7.20;;;4.77;;
21601;SDS011;10963;50.934;4.668;2022-09-01T07:41:33;7.87;;;5.30;;
21601;SDS011;10963;50.934;4.668;2022-09-01T07:43:59;9.27;;;5.37;;
21601;SDS011;10963;50.934;4.668;2022-09-01T07:46:27;8.27;;;4.30;;
21601;SDS011;10963;50.934;4.668;2022-09-01T07:48:56;7.10;;;4.90;;
21601;SDS011;10963;50.934;4.668;2022-09-01T07:51:26;5.47;;;4.73;;
21601;SDS011;10963;50.934;4.668;2022-09-01T07:53:53;7.00;;;4.93;;
21601;SDS011;10963;50.934;4.668;2022-09-01T07:56:20;8.80;;;4.47;;
21601;SDS011;10963;50.934;4.668;2022-09-01T07:58:48;4.60;;;4.10;;
21601;SDS011;10963;50.934;4.668;2022-09-01T08:01:22;13.83;;;4.33;;
21601;SDS011;10963;50.934;4.668;2022-09-01T08:03:51;7.50;;;4.17;;
21601;SDS011;10963;50.934;4.668;2022-09-01T08:06:28;8.50;;;4.10;;
21601;SDS011;10963;50.934;4.668;2022-09-01T08:08:55;7.17;;;4.60;;
21601;SDS011;10963;50.934;4.668;2022-09-01T08:11:25;6.73;;;4.33;;
21601;SDS011;10963;50.934;4.668;2022-09-01T08:13:56;5.27;;;4.20;;
21601;SDS011;10963;50.934;4.668;2022-09-01T08:16:27;6.97;;;3.93;;
21601;SDS011;10963;50.934;4.668;2022-09-01T08:18:56;13.17;;;4.40;;
21601;SDS011;10963;50.934;4.668;2022-09-01T08:21:26;6.10;;;4.13;;
21601;SDS011;10963;50.934;4.668;2022-09-01T08:23:55;7.90;;;3.93;;
21601;SDS011;10963;50.934;4.668;2022-09-01T08:26:22;7.07;;;4.17;;
21601;SDS011;10963;50.934;4.668;2022-09-01T08:28:53;6.47;;;3.90;;
21601;SDS011;10963;50.934;4.668;2022-09-01T08:31:20;5.73;;;4.00;;
21601;SDS011;10963;50.934;4.668;2022-09-01T08:33:50;7.63;;;4.20;;
21601;SDS011;10963;50.934;4.668;2022-09-01T08:36:16;7.70;;;4.20;;
21601;SDS011;10963;50.934;4.668;2022-09-01T08:38:43;9.20;;;3.50;;
21601;SDS011;10963;50.934;4.668;2022-09-01T08:46:40;8.63;;;5.03;;
21601;SDS011;10963;50.934;4.668;2022-09-01T08:51:47;3.83;;;3.43;;
21601;SDS011;10963;50.934;4.668;2022-09-01T08:56:57;4.83;;;3.40;;
21601;SDS011;10963;50.934;4.668;2022-09-01T08:59:28;4.90;;;3.50;;
21601;SDS011;10963;50.934;4.668;2022-09-01T09:05:04;4.57;;;3.40;;
21601;SDS011;10963;50.934;4.668;2022-09-01T09:10:17;7.33;;;3.70;;
21601;SDS011;10963;50.934;4.668;2022-09-01T09:18:28;4.33;;;3.60;;
21601;SDS011;10963;50.934;4.668;2022-09-01T09:21:17;3.40;;;3.10;;
21601;SDS011;10963;50.934;4.668;2022-09-01T09:23:45;7.63;;;3.42;;
21601;SDS011;10963;50.934;4.668;2022-09-01T09:26:20;5.60;;;3.20;;
21601;SDS011;10963;50.934;4.668;2022-09-01T09:28:51;10.07;;;3.73;;
21601;SDS011;10963;50.934;4.668;2022-09-01T09:31:30;5.57;;;3.87;;
21601;SDS011;10963;50.934;4.668;2022-09-01T09:33:57;9.80;;;3.53;;
21601;SDS011;10963;50.934;4.668;2022-09-01T09:36:33;8.10;;;4.67;;
21601;SDS011;10963;50.934;4.668;2022-09-01T09:39:10;7.35;;;3.00;;
21601;SDS011;10963;50.934;4.668;2022-09-01T09:41:40;4.47;;;2.92;;
21601;SDS011;10963;50.934;4.668;2022-09-01T09:44:26;3.05;;;2.63;;
21601;SDS011;10963;50.934;4.668;2022-09-01T09:46:56;7.90;;;2.40;;
21601;SDS011;10963;50.934;4.668;2022-09-01T09:51:54;3.92;;;2.58;;
21601;SDS011;10963;50.934;4.668;2022-09-01T09:54:30;3.95;;;2.47;;
21601;SDS011;10963;50.934;4.668;2022-09-01T09:57:05;4.13;;;2.37;;
21601;SDS011;10963;50.934;4.668;2022-09-01T09:59:43;5.00;;;2.37;;
21601;SDS011;10963;50.934;4.668;2022-09-01T10:02:33;5.28;;;2.53;;
21601;SDS011;10963;50.934;4.668;2022-09-01T10:07:50;5.55;;;2.40;;
21601;SDS011;10963;50.934;4.668;2022-09-01T10:10:50;2.60;;;2.30;;
21601;SDS011;10963;50.934;4.668;2022-09-01T10:13:14;6.03;;;2.40;;
21601;SDS011;10963;50.934;4.668;2022-09-01T10:15:55;4.57;;;2.50;;
21601;SDS011;10963;50.934;4.668;2022-09-01T10:18:30;3.38;;;2.25;;
21601;SDS011;10963;50.934;4.668;2022-09-01T10:21:07;5.85;;;2.50;;
21601;SDS011;10963;50.934;4.668;2022-09-01T10:23:37;3.40;;;2.50;;
21601;SDS011;10963;50.934;4.668;2022-09-01T10:26:18;6.78;;;2.58;;
21601;SDS011;10963;50.934;4.668;2022-09-01T10:29:08;7.55;;;2.13;;
21601;SDS011;10963;50.934;4.668;2022-09-01T10:31:40;4.00;;;2.10;;
21601;SDS011;10963;50.934;4.668;2022-09-01T10:34:06;5.50;;;2.35;;
21601;SDS011;10963;50.934;4.668;2022-09-01T10:36:44;3.08;;;2.47;;
21601;SDS011;10963;50.934;4.668;2022-09-01T10:39:11;2.08;;;1.88;;
21601;SDS011;10963;50.934;4.668;2022-09-01T10:46:54;6.47;;;2.00;;
21601;SDS011;10963;50.934;4.668;2022-09-01T10:51:57;3.80;;;2.45;;
21601;SDS011;10963;50.934;4.668;2022-09-01T10:57:26;3.75;;;2.17;;
21601;SDS011;10963;50.934;4.668;2022-09-01T11:13:46;2.50;;;2.30;;
21601;SDS011;10963;50.934;4.668;2022-09-01T11:16:33;3.72;;;2.35;;
21601;SDS011;10963;50.934;4.668;2022-09-01T11:27:04;9.20;;;2.28;;
21601;SDS011;10963;50.934;4.668;2022-09-01T11:29:50;4.40;;;2.40;;
21601;SDS011;10963;50.934;4.668;2022-09-01T11:32:24;3.13;;;2.22;;
21601;SDS011;10963;50.934;4.668;2022-09-01T11:35:04;7.43;;;2.28;;
21601;SDS011;10963;50.934;4.668;2022-09-01T11:37:37;6.13;;;2.65;;
21601;SDS011;10963;50.934;4.668;2022-09-01T11:40:10;12.57;;;2.63;;
21601;SDS011;10963;50.934;4.668;2022-09-01T11:42:46;2.42;;;2.22;;
21601;SDS011;10963;50.934;4.668;2022-09-01T11:47:45;4.30;;;2.50;;
21601;SDS011;10963;50.934;4.668;2022-09-01T11:50:33;3.40;;;2.30;;
21601;SDS011;10963;50.934;4.668;2022-09-01T11:53:04;3.42;;;2.03;;
21601;SDS011;10963;50.934;4.668;2022-09-01T11:55:49;4.28;;;2.70;;
21601;SDS011;10963;50.934;4.668;2022-09-01T12:00:56;5.57;;;2.45;;
21601;SDS011;10963;50.934;4.668;2022-09-01T12:03:35;3.22;;;2.58;;
21601;SDS011;10963;50.934;4.668;2022-09-01T12:06:02;2.95;;;2.50;;
21601;SDS011;10963;50.934;4.668;2022-09-01T12:08:30;2.53;;;2.30;;
21601;SDS011;10963;50.934;4.668;2022-09-01T12:13:32;2.95;;;2.22;;
21601;SDS011;10963;50.934;4.668;2022-09-01T12:16:02;3.90;;;2.40;;
21601;SDS011;10963;50.934;4.668;2022-09-01T12:18:32;2.95;;;2.50;;
21601;SDS011;10963;50.934;4.668;2022-09-01T12:21:04;2.72;;;2.50;;
21601;SDS011;10963;50.934;4.668;2022-09-01T12:23:33;5.18;;;2.55;;
21601;SDS011;10963;50.934;4.668;2022-09-01T12:26:09;3.67;;;2.33;;
21601;SDS011;10963;50.934;4.668;2022-09-01T12:28:38;6.40;;;2.58;;
21601;SDS011;10963;50.934;4.668;2022-09-01T12:31:11;6.75;;;2.47;;
21601;SDS011;10963;50.934;4.668;2022-09-01T12:33:42;5.15;;;2.13;;
21601;SDS011;10963;50.934;4.668;2022-09-01T12:36:23;3.95;;;2.30;;
21601;SDS011;10963;50.934;4.668;2022-09-01T12:39:18;8.98;;;3.33;;
21601;SDS011;10963;50.934;4.668;2022-09-01T12:41:42;4.00;;;2.70;;
21601;SDS011;10963;50.934;4.668;2022-09-01T12:44:26;4.20;;;2.50;;
21601;SDS011;10963;50.934;4.668;2022-09-01T12:46:52;2.88;;;2.03;;
21601;SDS011;10963;50.934;4.668;2022-09-01T12:50:03;2.67;;;2.20;;
21601;SDS011;10963;50.934;4.668;2022-09-01T12:54:49;3.10;;;2.58;;
21601;SDS011;10963;50.934;4.668;2022-09-01T13:00:20;5.30;;;2.50;;
21601;SDS011;10963;50.934;4.668;2022-09-01T13:03:05;2.60;;;2.40;;
21601;SDS011;10963;50.934;4.668;2022-09-01T13:05:46;5.03;;;2.90;;
21601;SDS011;10963;50.934;4.668;2022-09-01T13:08:20;12.80;;;3.75;;
21601;SDS011;10963;50.934;4.668;2022-09-01T13:11:04;4.50;;;2.42;;
21601;SDS011;10963;50.934;4.668;2022-09-01T13:13:32;2.47;;;2.28;;
21601;SDS011;10963;50.934;4.668;2022-09-01T13:16:02;4.00;;;2.30;;
21601;SDS011;10963;50.934;4.668;2022-09-01T13:18:40;2.90;;;2.50;;
21601;SDS011;10963;50.934;4.668;2022-09-01T13:21:07;4.10;;;2.70;;
21601;SDS011;10963;50.934;4.668;2022-09-01T13:23:33;4.55;;;2.42;;
21601;SDS011;10963;50.934;4.668;2022-09-01T13:25:59;3.15;;;2.40;;
21601;SDS011;10963;50.934;4.668;2022-09-01T13:28:26;3.67;;;2.55;;
21601;SDS011;10963;50.934;4.668;2022-09-01T13:30:55;4.72;;;2.63;;
21601;SDS011;10963;50.934;4.668;2022-09-01T13:33:24;3.38;;;2.15;;
21601;SDS011;10963;50.934;4.668;2022-09-01T13:35:53;2.47;;;2.25;;
21601;SDS011;10963;50.934;4.668;2022-09-01T13:38:21;4.25;;;2.63;;
21601;SDS011;10963;50.934;4.668;2022-09-01T13:40:49;5.22;;;2.58;;
21601;SDS011;10963;50.934;4.668;2022-09-01T13:43:19;2.70;;;2.15;;
21601;SDS011;10963;50.934;4.668;2022-09-01T13:45:51;2.40;;;2.20;;
21601;SDS011;10963;50.934;4.668;2022-09-01T13:48:18;2.50;;;2.30;;
21601;SDS011;10963;50.934;4.668;2022-09-01T13:50:47;4.40;;;2.15;;
21601;SDS011;10963;50.934;4.668;2022-09-01T13:53:16;3.97;;;2.38;;
21601;SDS011;10963;50.934;4.668;2022-09-01T13:55:45;2.53;;;2.03;;
21601;SDS011;10963;50.934;4.668;2022-09-01T13:58:12;7.90;;;2.35;;
21601;SDS011;10963;50.934;4.668;2022-09-01T14:00:40;4.35;;;1.85;;
21601;SDS011;10963;50.934;4.668;2022-09-01T14:03:11;2.83;;;2.05;;
21601;SDS011;10963;50.934;4.668;2022-09-01T14:05:46;5.68;;;2.10;;
21601;SDS011;10963;50.934;4.668;2022-09-01T14:08:16;3.10;;;2.20;;
21601;SDS011;10963;50.934;4.668;2022-09-01T14:10:45;6.15;;;2.30;;
21601;SDS011;10963;50.934;4.668;2022-09-01T14:13:18;5.30;;;2.17;;
21601;SDS011;10963;50.934;4.668;2022-09-01T14:15:47;4.00;;;2.10;;
21601;SDS011;10963;50.934;4.668;2022-09-01T14:18:13;2.10;;;1.77;;
21601;SDS011;10963;50.934;4.668;2022-09-01T14:20:42;3.05;;;2.17;;
21601;SDS011;10963;50.934;4.668;2022-09-01T14:23:13;2.13;;;1.80;;
21601;SDS011;10963;50.934;4.668;2022-09-01T14:25:45;5.88;;;2.05;;
21601;SDS011;10963;50.934;4.668;2022-09-01T14:28:15;6.13;;;1.80;;
21601;SDS011;10963;50.934;4.668;2022-09-01T14:30:42;4.95;;;2.05;;
21601;SDS011;10963;50.934;4.668;2022-09-01T14:33:09;5.88;;;1.85;;
21601;SDS011;10963;50.934;4.668;2022-09-01T14:35:39;3.78;;;1.70;;
21601;SDS011;10963;50.934;4.668;2022-09-01T14:38:09;4.28;;;1.77;;
21601;SDS011;10963;50.934;4.668;2022-09-01T14:40:45;2.38;;;1.98;;
21601;SDS011;10963;50.934;4.668;2022-09-01T14:43:12;3.33;;;1.88;;
21601;SDS011;10963;50.934;4.668;2022-09-01T14:45:43;5.32;;;2.08;;
21601;SDS011;10963;50.934;4.668;2022-09-01T14:48:11;4.25;;;2.17;;
21601;SDS011;10963;50.934;4.668;2022-09-01T14:50:39;5.18;;;2.08;;
21601;SDS011;10963;50.934;4.668;2022-09-01T14:53:06;9.43;;;1.95;;
21601;SDS011;10963;50.934;4.668;2022-09-01T14:55:33;3.13;;;2.05;;
21601;SDS011;10963;50.934;4.668;2022-09-01T14:58:01;4.70;;;1.77;;
21601;SDS011;10963;50.934;4.668;2022-09-01T15:00:28;3.53;;;2.08;;
21601;SDS011;10963;50.934;4.668;2022-09-01T15:02:57;7.30;;;2.40;;
21601;SDS011;10963;50.934;4.668;2022-09-01T15:05:23;3.50;;;1.80;;
21601;SDS011;10963;50.934;4.668;2022-09-01T15:07:50;2.50;;;1.77;;
21601;SDS011;10963;50.934;4.668;2022-09-01T15:10:20;3.83;;;1.80;;
21601;SDS011;10963;50.934;4.668;2022-09-01T15:12:55;4.68;;;1.92;;
21601;SDS011;10963;50.934;4.668;2022-09-01T15:15:25;7.90;;;2.05;;
21601;SDS011;10963;50.934;4.668;2022-09-01T15:17:54;2.50;;;1.63;;
21601;SDS011;10963;50.934;4.668;2022-09-01T15:20:23;3.47;;;1.80;;
21601;SDS011;10963;50.934;4.668;2022-09-01T15:23:11;2.28;;;1.60;;
21601;SDS011;10963;50.934;4.668;2022-09-01T15:25:52;2.05;;;1.63;;
21601;SDS011;10963;50.934;4.668;2022-09-01T15:28:19;2.53;;;1.55;;
21601;SDS011;10963;50.934;4.668;2022-09-01T15:30:46;1.90;;;1.80;;
21601;SDS011;10963;50.934;4.668;2022-09-01T15:33:13;2.97;;;1.70;;
21601;SDS011;10963;50.934;4.668;2022-09-01T15:35:39;2.30;;;1.67;;
21601;SDS011;10963;50.934;4.668;2022-09-01T15:38:06;3.25;;;1.70;;
21601;SDS011;10963;50.934;4.668;2022-09-01T15:40:38;2.33;;;2.13;;
21601;SDS011;10963;50.934;4.668;2022-09-01T15:43:09;3.45;;;1.90;;
21601;SDS011;10963;50.934;4.668;2022-09-01T15:45:37;4.28;;;1.85;;
21601;SDS011;10963;50.934;4.668;2022-09-01T15:48:06;7.32;;;1.70;;
21601;SDS011;10963;50.934;4.668;2022-09-01T15:50:32;3.30;;;2.05;;
21601;SDS011;10963;50.934;4.668;2022-09-01T15:52:59;8.00;;;2.10;;
21601;SDS011;10963;50.934;4.668;2022-09-01T15:55:32;6.28;;;2.33;;
21601;SDS011;10963;50.934;4.668;2022-09-01T15:58:07;3.33;;;1.70;;
21601;SDS011;10963;50.934;4.668;2022-09-01T16:00:38;3.67;;;1.77;;
21601;SDS011;10963;50.934;4.668;2022-09-01T16:03:04;4.90;;;1.75;;
21601;SDS011;10963;50.934;4.668;2022-09-01T16:05:34;2.00;;;1.80;;
21601;SDS011;10963;50.934;4.668;2022-09-01T16:08:02;5.60;;;1.70;;
21601;SDS011;10963;50.934;4.668;2022-09-01T16:10:36;3.67;;;1.90;;
21601;SDS011;10963;50.934;4.668;2022-09-01T16:13:06;3.78;;;2.00;;
21601;SDS011;10963;50.934;4.668;2022-09-01T16:15:32;5.95;;;2.47;;
21601;SDS011;10963;50.934;4.668;2022-09-01T16:23:25;3.83;;;1.90;;
21601;SDS011;10963;50.934;4.668;2022-09-01T16:26:03;4.20;;;2.35;;
21601;SDS011;10963;50.934;4.668;2022-09-01T16:28:32;4.57;;;2.08;;